WetterOnline ( https://www.wetteronline.ch )

Wetter aktuell St. Wendel

Aktuelles Wetter: Tholey (398m)

6-stündlich | Neueste Meldungen
Ortszeit Temperatur Wetter
Do, 13.08. 2:00 21.0° C leicht bewölkt
Mi, 12.08. 20:00 23.8° C wolkig
Mi, 12.08. 14:00 31.9° C wolkenlos
Mi, 12.08. 8:00 21.3° C wolkenlos
Mi, 12.08. 2:00 22.0° C wolkig
Di, 11.08. 20:00 26.5° C wolkig
Di, 11.08. 14:00 32.2° C wolkig
Di, 11.08. 8:00 22.8° C wolkig
Ortszeit Temperatur Wetter
Do, 13.08. 2:00 21.0° C leicht bewölkt
Do, 13.08. 1:50 21.0° C leicht bewölkt
Do, 13.08. 1:40 20.9° C fast wolkenlos
Do, 13.08. 1:30 20.8° C wolkenlos
Do, 13.08. 1:20 20.8° C wolkenlos
Do, 13.08. 1:10 21.1° C wolkenlos
Do, 13.08. 1:00 21.3° C leicht bewölkt
Do, 13.08. 0:30 21.3° C bewölkt
Do, 13.08. 0:00 21.3° C leichter Regen
Mi, 12.08. 23:30 22.1° C bewölkt
Mi, 12.08. 23:00 22.3° C bewölkt
Ortszeit Relative Feuchte Sichtweite
Do, 13.08. 2:00 71% 55 km
Mi, 12.08. 20:00 64% 55 km
Mi, 12.08. 14:00 35% 50 km
Mi, 12.08. 8:00 74% 35 km
Mi, 12.08. 2:00 70% 45 km
Di, 11.08. 20:00 55% 45 km
Di, 11.08. 14:00 34% 60 km
Di, 11.08. 8:00 65% 30 km
Ortszeit Relative Feuchte Sichtweite
Do, 13.08. 2:00 71% 55 km
Do, 13.08. 1:50 71% -
Do, 13.08. 1:40 72% -
Do, 13.08. 1:30 72% 50 km
Do, 13.08. 1:20 72% -
Do, 13.08. 1:10 71% -
Do, 13.08. 1:00 70% 50 km
Do, 13.08. 0:30 70% 55 km
Do, 13.08. 0:00 70% 45 km
Mi, 12.08. 23:30 63% >70 km
Mi, 12.08. 23:00 64% 55 km
Ortszeit Niederschlagsmenge Niederschlagsart
Do, 13.08. 2:00 0.1 l/m2 in 6 Std. Regen
Mi, 12.08. 20:00 0.1 l/m2 in 12 Std. Regen
Mi, 12.08. 14:00 0.0 l/m2 in 6 Std. -
Mi, 12.08. 8:00 0.0 l/m2 in 12 Std. -
Mi, 12.08. 2:00 0.0 l/m2 in 6 Std. -
Di, 11.08. 20:00 3 l/m2 in 12 Std. Regen
Di, 11.08. 14:00 0.0 l/m2 in 6 Std. -
Di, 11.08. 8:00 0.0 l/m2 in 12 Std. -
Ortszeit Niederschlagsmenge Niederschlagsart
Do, 13.08. 2:00 0.0 l/m2 in 1 Std. Regen
Do, 13.08. 1:50 keine Meldung -
Do, 13.08. 1:40 keine Meldung -
Do, 13.08. 1:30 0.0 l/m2 in 1 Std. -
Do, 13.08. 1:20 keine Meldung -
Do, 13.08. 1:10 keine Meldung -
Do, 13.08. 1:00 0.1 l/m2 in 1 Std. Regen
Do, 13.08. 0:30 0.1 l/m2 in 1 Std. Schneeregen
Do, 13.08. 0:00 0.1 l/m2 in 1 Std. Regen
Mi, 12.08. 23:30 0.0 l/m2 in 1 Std. -
Mi, 12.08. 23:00 0.0 l/m2 in 1 Std. -
Ortszeit Stärke Spitze Richtung
km/h Bft. km/h Grad Sektor
Do, 13.08. 2:00 18 3 29 50° NO
Mi, 12.08. 20:00 17 3 43 50° NO
Mi, 12.08. 14:00 14 3 25 130° SO
Mi, 12.08. 8:00 11 2 25 60° NO
Mi, 12.08. 2:00 19 3 37 60° NO
Di, 11.08. 20:00 7 2 47 70° O
Di, 11.08. 14:00 11 2 25 160° S
Di, 11.08. 8:00 11 2 25 60° NO
Ortszeit Stärke Spitze Richtung
km/h Bft. km/h Grad Sektor
Do, 13.08. 2:00 18 3 25 50° NO
Do, 13.08. 1:50 18 3 - 50° NO
Do, 13.08. 1:40 18 3 - 50° NO
Do, 13.08. 1:30 18 3 25 50° NO
Do, 13.08. 1:20 18 3 - 50° NO
Do, 13.08. 1:10 17 3 - 50° NO
Do, 13.08. 1:00 15 3 22 50° NO
Do, 13.08. 0:30 13 3 20 50° NO
Do, 13.08. 0:00 11 2 29 40° NO
Mi, 12.08. 23:30 19 3 28 40° NO
Mi, 12.08. 23:00 20 4 30 40° NO
Ortszeit Untergrenze Bedeckung Gattung
total tief tief mittel hoch
Do, 13.08. 2:00 8700 m 5/8 0/8 - - -
Mi, 12.08. 20:00 6000 m 8/8 3/8 - - -
Mi, 12.08. 14:00 - 0/8 0/8 - - -
Mi, 12.08. 8:00 - 0/8 0/8 - - -
Mi, 12.08. 2:00 9000 m 8/8 0/8 - - -
Di, 11.08. 20:00 2700 m 8/8 1/8 - - -
Di, 11.08. 14:00 3600 m 8/8 8/8 - - -
Di, 11.08. 8:00 4800 m 8/8 8/8 - - -
Ortszeit Bedeckungsgrad in Achtel und Wolkenuntergrenze
Do, 13.08. 2:00 5(8700m)
Do, 13.08. 1:50 5(8700m)
Do, 13.08. 1:40 2(8700m)
Do, 13.08. 1:30 keine Wolken
Do, 13.08. 1:20 keine Wolken
Do, 13.08. 1:10 keine Wolken
Do, 13.08. 1:00 1(3600m) 3(5400m)
Do, 13.08. 0:30 5(3600m) 7(4200m) 7(4800m)
Do, 13.08. 0:00 3(2100m) 7(3600m) 8(4800m)
Mi, 12.08. 23:30 6(2100m) 8(5100m) 8(7800m)
Mi, 12.08. 23:00 6(2400m) 6(3300m) 8(10500m)
Ortszeit Luftdruck NN (hPa) Tendenz (hPa in 3 Std.)
Do, 13.08. 2:00 1013 - 1,3
Mi, 12.08. 20:00 1013 + 0,1
Mi, 12.08. 14:00 1013 - 0,9
Mi, 12.08. 8:00 1015 + 0,1
Mi, 12.08. 2:00 1015 - 0,5
Di, 11.08. 20:00 1013 - 0,4
Di, 11.08. 14:00 1014 - 0,3
Di, 11.08. 8:00 1014 + 0,5
Ortszeit Luftdruck NN (hPa) Tendenz (hPa in 3 Std.)
Do, 13.08. 2:00 1013 - 1,3
Do, 13.08. 1:50 1013 keine Meldung
Do, 13.08. 1:40 1013 keine Meldung
Do, 13.08. 1:30 1013 - 0,7
Do, 13.08. 1:20 1013 keine Meldung
Do, 13.08. 1:10 1013 keine Meldung
Do, 13.08. 1:00 1013 - 0,4
Do, 13.08. 0:30 1013 + 0,2
Do, 13.08. 0:00 1014 + 0,8
Mi, 12.08. 23:30 1014 + 0,5
Mi, 12.08. 23:00 1014 + 0,7
Ortszeit Schneehöhe (cm)
Do, 13.08. 2:00 -
Mi, 12.08. 20:00 -
Mi, 12.08. 14:00 -
Mi, 12.08. 8:00 -
Mi, 12.08. 2:00 -
Di, 11.08. 20:00 -
Di, 11.08. 14:00 -
Di, 11.08. 8:00 -
Ortszeit Schneehöhe (cm)
Do, 13.08. 2:00 -
Do, 13.08. 1:50 -
Do, 13.08. 1:40 -
Do, 13.08. 1:30 -
Do, 13.08. 1:20 -
Do, 13.08. 1:10 -
Do, 13.08. 1:00 -
Do, 13.08. 0:30 -
Do, 13.08. 0:00 -
Mi, 12.08. 23:30 -
Mi, 12.08. 23:00 -
Link zu dieser Seite / Seite empfehlen

Das Wetter in ...